sensor_id;sensor_type;location;lat;lon;timestamp;P1;durP1;ratioP1;P2;durP2;ratioP2
11651;SDS011;5882;48.818;9.114;2023-05-16T00:01:45;5.15;;;4.20;;
11651;SDS011;5882;48.818;9.114;2023-05-16T00:04:29;4.80;;;4.30;;
11651;SDS011;5882;48.818;9.114;2023-05-16T00:07:16;4.75;;;4.35;;
11651;SDS011;5882;48.818;9.114;2023-05-16T00:10:02;5.10;;;4.60;;
11651;SDS011;5882;48.818;9.114;2023-05-16T00:12:48;4.53;;;4.13;;
11651;SDS011;5882;48.818;9.114;2023-05-16T00:15:34;5.70;;;5.20;;
11651;SDS011;5882;48.818;9.114;2023-05-16T00:18:21;5.60;;;5.00;;
11651;SDS011;5882;48.818;9.114;2023-05-16T00:21:06;5.45;;;4.95;;
11651;SDS011;5882;48.818;9.114;2023-05-16T00:23:51;6.10;;;5.20;;
11651;SDS011;5882;48.818;9.114;2023-05-16T00:26:37;6.88;;;5.78;;
11651;SDS011;5882;48.818;9.114;2023-05-16T00:29:22;6.13;;;5.50;;
11651;SDS011;5882;48.818;9.114;2023-05-16T00:32:07;6.80;;;5.70;;
11651;SDS011;5882;48.818;9.114;2023-05-16T00:34:52;6.03;;;5.40;;
11651;SDS011;5882;48.818;9.114;2023-05-16T00:37:37;7.22;;;6.28;;
11651;SDS011;5882;48.818;9.114;2023-05-16T00:40:22;6.68;;;5.63;;
11651;SDS011;5882;48.818;9.114;2023-05-16T00:43:09;6.38;;;5.15;;
11651;SDS011;5882;48.818;9.114;2023-05-16T00:45:54;6.57;;;5.80;;
11651;SDS011;5882;48.818;9.114;2023-05-16T00:48:40;8.00;;;6.25;;
11651;SDS011;5882;48.818;9.114;2023-05-16T00:51:25;6.82;;;5.45;;
11651;SDS011;5882;48.818;9.114;2023-05-16T00:54:10;7.22;;;6.53;;
11651;SDS011;5882;48.818;9.114;2023-05-16T00:56:56;6.63;;;5.85;;
11651;SDS011;5882;48.818;9.114;2023-05-16T00:59:42;7.25;;;5.90;;
11651;SDS011;5882;48.818;9.114;2023-05-16T01:02:28;7.25;;;5.93;;
11651;SDS011;5882;48.818;9.114;2023-05-16T01:05:13;7.10;;;6.15;;
11651;SDS011;5882;48.818;9.114;2023-05-16T01:07:58;6.65;;;5.95;;
11651;SDS011;5882;48.818;9.114;2023-05-16T01:10:45;7.63;;;6.72;;
11651;SDS011;5882;48.818;9.114;2023-05-16T01:13:35;8.98;;;5.97;;
11651;SDS011;5882;48.818;9.114;2023-05-16T01:16:28;7.63;;;6.03;;
11651;SDS011;5882;48.818;9.114;2023-05-16T01:19:18;7.15;;;6.45;;
11651;SDS011;5882;48.818;9.114;2023-05-16T01:22:05;8.23;;;6.75;;
11651;SDS011;5882;48.818;9.114;2023-05-16T01:25:01;8.15;;;6.65;;
11651;SDS011;5882;48.818;9.114;2023-05-16T01:27:50;8.30;;;6.95;;
11651;SDS011;5882;48.818;9.114;2023-05-16T01:30:37;8.48;;;7.30;;
11651;SDS011;5882;48.818;9.114;2023-05-16T01:33:22;8.93;;;6.10;;
11651;SDS011;5882;48.818;9.114;2023-05-16T01:36:10;7.47;;;6.68;;
11651;SDS011;5882;48.818;9.114;2023-05-16T01:38:59;8.43;;;7.22;;
11651;SDS011;5882;48.818;9.114;2023-05-16T01:41:46;9.95;;;7.30;;
11651;SDS011;5882;48.818;9.114;2023-05-16T01:44:40;8.43;;;7.30;;
11651;SDS011;5882;48.818;9.114;2023-05-16T01:47:27;9.88;;;7.45;;
11651;SDS011;5882;48.818;9.114;2023-05-16T01:50:14;8.57;;;7.40;;
11651;SDS011;5882;48.818;9.114;2023-05-16T01:53:01;10.27;;;7.93;;
11651;SDS011;5882;48.818;9.114;2023-05-16T01:55:48;9.50;;;7.70;;
11651;SDS011;5882;48.818;9.114;2023-05-16T01:58:34;9.23;;;6.80;;
11651;SDS011;5882;48.818;9.114;2023-05-16T02:01:22;11.65;;;7.82;;
11651;SDS011;5882;48.818;9.114;2023-05-16T02:04:07;9.82;;;8.68;;
11651;SDS011;5882;48.818;9.114;2023-05-16T02:06:52;11.43;;;8.00;;
11651;SDS011;5882;48.818;9.114;2023-05-16T02:09:38;10.30;;;8.50;;
11651;SDS011;5882;48.818;9.114;2023-05-16T02:12:23;9.32;;;7.63;;
11651;SDS011;5882;48.818;9.114;2023-05-16T02:15:09;9.40;;;8.13;;
11651;SDS011;5882;48.818;9.114;2023-05-16T02:17:55;9.75;;;7.53;;
11651;SDS011;5882;48.818;9.114;2023-05-16T02:20:41;9.52;;;7.75;;
11651;SDS011;5882;48.818;9.114;2023-05-16T02:23:26;9.98;;;8.10;;
11651;SDS011;5882;48.818;9.114;2023-05-16T02:26:11;12.02;;;8.98;;
11651;SDS011;5882;48.818;9.114;2023-05-16T02:28:56;9.10;;;7.43;;
11651;SDS011;5882;48.818;9.114;2023-05-16T02:31:41;11.35;;;9.05;;
11651;SDS011;5882;48.818;9.114;2023-05-16T02:34:27;11.60;;;7.82;;
11651;SDS011;5882;48.818;9.114;2023-05-16T02:37:13;10.40;;;8.85;;
11651;SDS011;5882;48.818;9.114;2023-05-16T02:39:58;9.43;;;7.70;;
11651;SDS011;5882;48.818;9.114;2023-05-16T02:42:43;10.20;;;8.10;;
11651;SDS011;5882;48.818;9.114;2023-05-16T02:45:28;10.75;;;8.07;;
11651;SDS011;5882;48.818;9.114;2023-05-16T02:48:13;12.73;;;8.18;;
11651;SDS011;5882;48.818;9.114;2023-05-16T02:50:59;12.80;;;8.85;;
11651;SDS011;5882;48.818;9.114;2023-05-16T02:53:44;11.95;;;8.27;;
11651;SDS011;5882;48.818;9.114;2023-05-16T02:56:29;11.50;;;8.82;;
11651;SDS011;5882;48.818;9.114;2023-05-16T02:59:14;12.07;;;9.13;;
11651;SDS011;5882;48.818;9.114;2023-05-16T03:01:59;12.15;;;7.82;;
11651;SDS011;5882;48.818;9.114;2023-05-16T03:04:44;13.63;;;9.10;;
11651;SDS011;5882;48.818;9.114;2023-05-16T03:07:31;12.77;;;9.52;;
11651;SDS011;5882;48.818;9.114;2023-05-16T03:10:16;11.50;;;8.73;;
11651;SDS011;5882;48.818;9.114;2023-05-16T03:13:01;12.15;;;8.65;;
11651;SDS011;5882;48.818;9.114;2023-05-16T03:15:46;11.27;;;8.63;;
11651;SDS011;5882;48.818;9.114;2023-05-16T03:18:31;12.38;;;9.48;;
11651;SDS011;5882;48.818;9.114;2023-05-16T03:21:16;12.68;;;8.38;;
11651;SDS011;5882;48.818;9.114;2023-05-16T03:24:02;13.70;;;9.25;;
11651;SDS011;5882;48.818;9.114;2023-05-16T03:26:47;12.23;;;9.13;;
11651;SDS011;5882;48.818;9.114;2023-05-16T03:29:32;13.27;;;9.45;;
11651;SDS011;5882;48.818;9.114;2023-05-16T03:32:17;13.93;;;10.10;;
11651;SDS011;5882;48.818;9.114;2023-05-16T03:35:03;14.35;;;9.55;;
11651;SDS011;5882;48.818;9.114;2023-05-16T03:37:48;15.27;;;9.82;;
11651;SDS011;5882;48.818;9.114;2023-05-16T03:40:35;14.80;;;10.20;;
11651;SDS011;5882;48.818;9.114;2023-05-16T03:43:20;17.20;;;9.77;;
11651;SDS011;5882;48.818;9.114;2023-05-16T03:46:05;16.17;;;10.10;;
11651;SDS011;5882;48.818;9.114;2023-05-16T03:48:50;15.00;;;9.90;;
11651;SDS011;5882;48.818;9.114;2023-05-16T03:51:35;16.48;;;9.98;;
11651;SDS011;5882;48.818;9.114;2023-05-16T03:54:20;13.57;;;9.65;;
11651;SDS011;5882;48.818;9.114;2023-05-16T03:57:07;16.13;;;9.57;;
11651;SDS011;5882;48.818;9.114;2023-05-16T03:59:52;14.52;;;9.40;;
11651;SDS011;5882;48.818;9.114;2023-05-16T04:02:37;15.70;;;9.80;;
11651;SDS011;5882;48.818;9.114;2023-05-16T04:05:24;15.57;;;9.98;;
11651;SDS011;5882;48.818;9.114;2023-05-16T04:08:09;14.40;;;9.93;;
11651;SDS011;5882;48.818;9.114;2023-05-16T04:10:55;14.45;;;10.63;;
11651;SDS011;5882;48.818;9.114;2023-05-16T04:13:41;17.35;;;10.70;;
11651;SDS011;5882;48.818;9.114;2023-05-16T04:16:26;16.88;;;10.70;;
11651;SDS011;5882;48.818;9.114;2023-05-16T04:19:11;13.82;;;9.98;;
11651;SDS011;5882;48.818;9.114;2023-05-16T04:21:56;14.90;;;10.07;;
11651;SDS011;5882;48.818;9.114;2023-05-16T04:24:41;16.90;;;10.65;;
11651;SDS011;5882;48.818;9.114;2023-05-16T04:27:26;15.10;;;10.25;;
11651;SDS011;5882;48.818;9.114;2023-05-16T04:30:14;14.48;;;9.77;;
11651;SDS011;5882;48.818;9.114;2023-05-16T04:33:00;15.57;;;10.35;;
11651;SDS011;5882;48.818;9.114;2023-05-16T04:35:45;18.17;;;11.30;;
11651;SDS011;5882;48.818;9.114;2023-05-16T04:38:31;16.83;;;10.98;;
11651;SDS011;5882;48.818;9.114;2023-05-16T04:41:16;17.25;;;11.10;;
11651;SDS011;5882;48.818;9.114;2023-05-16T04:44:01;17.10;;;10.82;;
11651;SDS011;5882;48.818;9.114;2023-05-16T04:46:48;15.50;;;10.43;;
11651;SDS011;5882;48.818;9.114;2023-05-16T04:49:34;15.10;;;10.35;;
11651;SDS011;5882;48.818;9.114;2023-05-16T04:52:19;13.45;;;9.90;;
11651;SDS011;5882;48.818;9.114;2023-05-16T04:55:04;15.38;;;10.25;;
11651;SDS011;5882;48.818;9.114;2023-05-16T04:57:49;15.43;;;11.40;;
11651;SDS011;5882;48.818;9.114;2023-05-16T05:00:34;16.52;;;10.45;;
11651;SDS011;5882;48.818;9.114;2023-05-16T05:03:21;14.73;;;10.70;;
11651;SDS011;5882;48.818;9.114;2023-05-16T05:06:07;14.57;;;10.13;;
11651;SDS011;5882;48.818;9.114;2023-05-16T05:08:52;16.67;;;11.20;;
11651;SDS011;5882;48.818;9.114;2023-05-16T05:11:37;14.13;;;10.32;;
11651;SDS011;5882;48.818;9.114;2023-05-16T05:14:21;15.45;;;10.65;;
11651;SDS011;5882;48.818;9.114;2023-05-16T05:17:07;16.67;;;11.30;;
11651;SDS011;5882;48.818;9.114;2023-05-16T05:19:53;16.40;;;10.45;;
11651;SDS011;5882;48.818;9.114;2023-05-16T05:22:38;14.25;;;9.80;;
11651;SDS011;5882;48.818;9.114;2023-05-16T05:25:23;15.38;;;10.90;;
11651;SDS011;5882;48.818;9.114;2023-05-16T05:28:08;14.65;;;10.38;;
11651;SDS011;5882;48.818;9.114;2023-05-16T05:30:53;15.63;;;10.82;;
11651;SDS011;5882;48.818;9.114;2023-05-16T05:33:38;13.82;;;9.20;;
11651;SDS011;5882;48.818;9.114;2023-05-16T05:36:24;13.68;;;9.82;;
11651;SDS011;5882;48.818;9.114;2023-05-16T05:39:10;15.18;;;9.93;;
11651;SDS011;5882;48.818;9.114;2023-05-16T05:41:54;13.55;;;9.07;;
11651;SDS011;5882;48.818;9.114;2023-05-16T05:44:39;16.05;;;10.25;;
11651;SDS011;5882;48.818;9.114;2023-05-16T05:47:24;14.13;;;10.25;;
11651;SDS011;5882;48.818;9.114;2023-05-16T05:50:09;13.18;;;9.57;;
11651;SDS011;5882;48.818;9.114;2023-05-16T05:52:56;15.05;;;10.27;;
11651;SDS011;5882;48.818;9.114;2023-05-16T05:55:42;14.95;;;10.38;;
11651;SDS011;5882;48.818;9.114;2023-05-16T05:58:27;14.18;;;9.73;;
11651;SDS011;5882;48.818;9.114;2023-05-16T06:01:11;15.27;;;10.20;;
11651;SDS011;5882;48.818;9.114;2023-05-16T06:03:57;15.27;;;10.43;;
11651;SDS011;5882;48.818;9.114;2023-05-16T06:06:42;14.30;;;10.13;;
11651;SDS011;5882;48.818;9.114;2023-05-16T06:09:28;13.20;;;9.25;;
11651;SDS011;5882;48.818;9.114;2023-05-16T06:12:13;14.05;;;9.70;;
11651;SDS011;5882;48.818;9.114;2023-05-16T06:14:58;13.05;;;9.63;;
11651;SDS011;5882;48.818;9.114;2023-05-16T06:17:43;14.70;;;9.35;;
11651;SDS011;5882;48.818;9.114;2023-05-16T06:20:28;15.15;;;9.55;;
11651;SDS011;5882;48.818;9.114;2023-05-16T06:23:13;15.35;;;9.88;;
11651;SDS011;5882;48.818;9.114;2023-05-16T06:25:59;15.43;;;9.63;;
11651;SDS011;5882;48.818;9.114;2023-05-16T06:28:44;13.95;;;9.55;;
11651;SDS011;5882;48.818;9.114;2023-05-16T06:31:29;12.63;;;8.85;;
11651;SDS011;5882;48.818;9.114;2023-05-16T06:34:15;12.00;;;9.27;;
11651;SDS011;5882;48.818;9.114;2023-05-16T06:37:00;12.15;;;9.63;;
11651;SDS011;5882;48.818;9.114;2023-05-16T06:39:46;12.65;;;8.57;;
11651;SDS011;5882;48.818;9.114;2023-05-16T06:42:32;11.98;;;9.02;;
11651;SDS011;5882;48.818;9.114;2023-05-16T06:45:17;12.60;;;8.63;;
11651;SDS011;5882;48.818;9.114;2023-05-16T06:48:03;11.73;;;8.45;;
11651;SDS011;5882;48.818;9.114;2023-05-16T06:50:48;11.95;;;9.15;;
11651;SDS011;5882;48.818;9.114;2023-05-16T06:53:34;13.07;;;8.95;;
11651;SDS011;5882;48.818;9.114;2023-05-16T06:56:19;10.27;;;7.65;;
11651;SDS011;5882;48.818;9.114;2023-05-16T06:59:06;10.77;;;8.02;;
11651;SDS011;5882;48.818;9.114;2023-05-16T07:01:51;11.13;;;8.77;;
11651;SDS011;5882;48.818;9.114;2023-05-16T07:04:36;9.00;;;7.13;;
11651;SDS011;5882;48.818;9.114;2023-05-16T07:07:22;11.48;;;7.90;;
11651;SDS011;5882;48.818;9.114;2023-05-16T07:10:07;10.15;;;7.30;;
11651;SDS011;5882;48.818;9.114;2023-05-16T07:12:52;7.10;;;6.38;;
11651;SDS011;5882;48.818;9.114;2023-05-16T07:15:39;9.18;;;7.90;;
11651;SDS011;5882;48.818;9.114;2023-05-16T07:18:24;9.50;;;7.70;;
11651;SDS011;5882;48.818;9.114;2023-05-16T07:21:10;8.75;;;7.05;;
11651;SDS011;5882;48.818;9.114;2023-05-16T07:23:56;11.85;;;7.40;;
11651;SDS011;5882;48.818;9.114;2023-05-16T07:26:41;8.18;;;6.15;;
11651;SDS011;5882;48.818;9.114;2023-05-16T07:29:26;8.20;;;6.38;;
11651;SDS011;5882;48.818;9.114;2023-05-16T07:32:14;7.90;;;6.05;;
11651;SDS011;5882;48.818;9.114;2023-05-16T07:34:59;7.35;;;5.70;;
11651;SDS011;5882;48.818;9.114;2023-05-16T07:37:44;8.60;;;6.20;;
11651;SDS011;5882;48.818;9.114;2023-05-16T07:40:29;9.10;;;6.40;;
11651;SDS011;5882;48.818;9.114;2023-05-16T07:43:14;8.93;;;6.85;;
11651;SDS011;5882;48.818;9.114;2023-05-16T07:45:59;9.23;;;6.72;;
11651;SDS011;5882;48.818;9.114;2023-05-16T07:48:46;8.13;;;6.10;;
11651;SDS011;5882;48.818;9.114;2023-05-16T07:51:31;10.00;;;6.55;;
11651;SDS011;5882;48.818;9.114;2023-05-16T07:54:16;7.60;;;6.80;;
11651;SDS011;5882;48.818;9.114;2023-05-16T07:57:01;7.30;;;5.95;;
11651;SDS011;5882;48.818;9.114;2023-05-16T07:59:46;6.72;;;5.20;;
11651;SDS011;5882;48.818;9.114;2023-05-16T08:02:31;6.30;;;5.32;;
11651;SDS011;5882;48.818;9.114;2023-05-16T08:05:18;7.20;;;4.32;;
11651;SDS011;5882;48.818;9.114;2023-05-16T08:08:03;6.15;;;4.97;;
11651;SDS011;5882;48.818;9.114;2023-05-16T08:10:48;6.95;;;5.63;;
11651;SDS011;5882;48.818;9.114;2023-05-16T08:13:33;7.05;;;5.28;;
11651;SDS011;5882;48.818;9.114;2023-05-16T08:16:17;6.35;;;5.72;;
11651;SDS011;5882;48.818;9.114;2023-05-16T08:19:02;6.22;;;5.55;;
11651;SDS011;5882;48.818;9.114;2023-05-16T08:21:49;5.75;;;5.03;;
11651;SDS011;5882;48.818;9.114;2023-05-16T08:24:34;6.80;;;5.55;;
11651;SDS011;5882;48.818;9.114;2023-05-16T08:27:19;5.95;;;5.35;;
11651;SDS011;5882;48.818;9.114;2023-05-16T08:30:04;6.03;;;4.80;;
11651;SDS011;5882;48.818;9.114;2023-05-16T08:32:50;6.00;;;5.35;;
11651;SDS011;5882;48.818;9.114;2023-05-16T08:35:35;6.05;;;4.90;;
11651;SDS011;5882;48.818;9.114;2023-05-16T08:38:21;5.70;;;4.45;;
11651;SDS011;5882;48.818;9.114;2023-05-16T08:41:06;6.70;;;5.32;;
11651;SDS011;5882;48.818;9.114;2023-05-16T08:43:51;8.23;;;5.65;;
11651;SDS011;5882;48.818;9.114;2023-05-16T08:46:37;8.13;;;5.60;;
11651;SDS011;5882;48.818;9.114;2023-05-16T08:49:24;7.40;;;5.55;;
11651;SDS011;5882;48.818;9.114;2023-05-16T08:52:11;8.75;;;6.50;;
11651;SDS011;5882;48.818;9.114;2023-05-16T08:55:00;7.38;;;6.25;;
11651;SDS011;5882;48.818;9.114;2023-05-16T08:57:48;9.40;;;6.15;;
11651;SDS011;5882;48.818;9.114;2023-05-16T09:00:33;8.02;;;6.80;;
11651;SDS011;5882;48.818;9.114;2023-05-16T09:03:18;10.07;;;8.20;;
11651;SDS011;5882;48.818;9.114;2023-05-16T09:06:06;9.18;;;6.72;;
11651;SDS011;5882;48.818;9.114;2023-05-16T09:08:51;7.38;;;6.43;;
11651;SDS011;5882;48.818;9.114;2023-05-16T09:11:37;10.02;;;6.88;;
11651;SDS011;5882;48.818;9.114;2023-05-16T09:14:22;9.88;;;6.32;;
11651;SDS011;5882;48.818;9.114;2023-05-16T09:17:08;10.63;;;6.75;;
11651;SDS011;5882;48.818;9.114;2023-05-16T09:19:53;9.77;;;6.80;;
11651;SDS011;5882;48.818;9.114;2023-05-16T09:22:48;8.35;;;6.53;;
11651;SDS011;5882;48.818;9.114;2023-05-16T09:25:34;9.50;;;6.72;;
11651;SDS011;5882;48.818;9.114;2023-05-16T09:28:20;9.45;;;7.07;;
11651;SDS011;5882;48.818;9.114;2023-05-16T09:31:18;7.82;;;6.60;;
11651;SDS011;5882;48.818;9.114;2023-05-16T09:34:03;9.07;;;6.72;;
11651;SDS011;5882;48.818;9.114;2023-05-16T09:36:53;11.00;;;7.45;;
11651;SDS011;5882;48.818;9.114;2023-05-16T09:39:38;9.93;;;6.93;;
11651;SDS011;5882;48.818;9.114;2023-05-16T09:42:24;9.18;;;6.40;;
11651;SDS011;5882;48.818;9.114;2023-05-16T09:45:14;9.93;;;6.03;;
11651;SDS011;5882;48.818;9.114;2023-05-16T09:48:03;8.10;;;6.40;;
11651;SDS011;5882;48.818;9.114;2023-05-16T09:50:49;9.30;;;6.15;;
11651;SDS011;5882;48.818;9.114;2023-05-16T09:53:35;7.88;;;6.05;;
11651;SDS011;5882;48.818;9.114;2023-05-16T09:56:21;8.48;;;6.95;;
11651;SDS011;5882;48.818;9.114;2023-05-16T09:59:09;10.77;;;7.05;;
11651;SDS011;5882;48.818;9.114;2023-05-16T10:01:56;9.02;;;6.40;;
11651;SDS011;5882;48.818;9.114;2023-05-16T10:04:41;9.25;;;6.00;;
11651;SDS011;5882;48.818;9.114;2023-05-16T10:07:26;8.90;;;5.45;;
11651;SDS011;5882;48.818;9.114;2023-05-16T10:10:12;7.13;;;5.72;;
11651;SDS011;5882;48.818;9.114;2023-05-16T10:12:57;7.15;;;5.03;;
11651;SDS011;5882;48.818;9.114;2023-05-16T10:15:44;7.55;;;5.35;;
11651;SDS011;5882;48.818;9.114;2023-05-16T10:18:31;11.57;;;5.97;;
11651;SDS011;5882;48.818;9.114;2023-05-16T10:21:16;8.25;;;6.30;;
11651;SDS011;5882;48.818;9.114;2023-05-16T10:24:02;8.27;;;5.65;;
11651;SDS011;5882;48.818;9.114;2023-05-16T10:26:47;5.97;;;5.03;;
11651;SDS011;5882;48.818;9.114;2023-05-16T10:29:33;4.93;;;4.15;;
11651;SDS011;5882;48.818;9.114;2023-05-16T10:32:18;6.05;;;4.80;;
11651;SDS011;5882;48.818;9.114;2023-05-16T10:35:06;5.25;;;4.13;;
11651;SDS011;5882;48.818;9.114;2023-05-16T10:37:51;6.20;;;4.50;;
11651;SDS011;5882;48.818;9.114;2023-05-16T10:40:37;5.47;;;4.47;;
11651;SDS011;5882;48.818;9.114;2023-05-16T10:43:22;4.68;;;4.13;;
11651;SDS011;5882;48.818;9.114;2023-05-16T10:46:10;6.35;;;4.60;;
11651;SDS011;5882;48.818;9.114;2023-05-16T10:48:56;5.47;;;4.43;;
11651;SDS011;5882;48.818;9.114;2023-05-16T10:51:43;4.78;;;3.92;;
11651;SDS011;5882;48.818;9.114;2023-05-16T10:54:34;4.57;;;3.25;;
11651;SDS011;5882;48.818;9.114;2023-05-16T10:57:22;4.70;;;3.90;;
11651;SDS011;5882;48.818;9.114;2023-05-16T11:00:08;6.82;;;5.13;;
11651;SDS011;5882;48.818;9.114;2023-05-16T11:03:05;5.35;;;4.07;;
11651;SDS011;5882;48.818;9.114;2023-05-16T11:06:03;4.72;;;3.60;;
11651;SDS011;5882;48.818;9.114;2023-05-16T11:08:57;6.78;;;3.45;;
11651;SDS011;5882;48.818;9.114;2023-05-16T11:11:57;5.68;;;3.90;;
11651;SDS011;5882;48.818;9.114;2023-05-16T11:14:44;4.35;;;3.53;;
11651;SDS011;5882;48.818;9.114;2023-05-16T11:17:37;3.88;;;3.47;;
11651;SDS011;5882;48.818;9.114;2023-05-16T11:20:26;3.55;;;2.80;;
11651;SDS011;5882;48.818;9.114;2023-05-16T11:23:22;3.30;;;2.90;;
11651;SDS011;5882;48.818;9.114;2023-05-16T11:26:08;3.40;;;3.08;;
11651;SDS011;5882;48.818;9.114;2023-05-16T11:28:53;6.05;;;3.42;;
11651;SDS011;5882;48.818;9.114;2023-05-16T11:31:40;2.90;;;2.60;;
11651;SDS011;5882;48.818;9.114;2023-05-16T11:34:25;3.65;;;2.72;;
11651;SDS011;5882;48.818;9.114;2023-05-16T11:37:11;3.45;;;2.80;;
11651;SDS011;5882;48.818;9.114;2023-05-16T11:39:57;4.40;;;2.40;;
11651;SDS011;5882;48.818;9.114;2023-05-16T11:42:44;2.65;;;2.25;;
11651;SDS011;5882;48.818;9.114;2023-05-16T11:45:29;3.05;;;2.47;;
11651;SDS011;5882;48.818;9.114;2023-05-16T11:48:14;3.28;;;2.15;;
11651;SDS011;5882;48.818;9.114;2023-05-16T11:51:00;3.25;;;2.80;;
11651;SDS011;5882;48.818;9.114;2023-05-16T11:53:45;4.72;;;2.92;;
11651;SDS011;5882;48.818;9.114;2023-05-16T11:56:33;3.03;;;2.72;;
11651;SDS011;5882;48.818;9.114;2023-05-16T11:59:20;3.22;;;2.60;;
11651;SDS011;5882;48.818;9.114;2023-05-16T12:02:05;2.50;;;2.10;;
11651;SDS011;5882;48.818;9.114;2023-05-16T12:04:52;2.85;;;2.58;;
11651;SDS011;5882;48.818;9.114;2023-05-16T12:07:37;4.35;;;2.17;;
11651;SDS011;5882;48.818;9.114;2023-05-16T12:10:22;2.58;;;2.35;;
11651;SDS011;5882;48.818;9.114;2023-05-16T12:13:07;3.13;;;2.42;;
11651;SDS011;5882;48.818;9.114;2023-05-16T12:15:53;2.75;;;2.45;;
11651;SDS011;5882;48.818;9.114;2023-05-16T12:18:39;2.95;;;2.50;;
11651;SDS011;5882;48.818;9.114;2023-05-16T12:21:24;3.17;;;2.40;;
11651;SDS011;5882;48.818;9.114;2023-05-16T12:24:09;2.45;;;2.20;;
11651;SDS011;5882;48.818;9.114;2023-05-16T12:26:55;2.42;;;2.22;;
11651;SDS011;5882;48.818;9.114;2023-05-16T12:29:45;3.05;;;2.20;;
11651;SDS011;5882;48.818;9.114;2023-05-16T12:32:32;2.90;;;2.20;;
11651;SDS011;5882;48.818;9.114;2023-05-16T12:35:20;2.35;;;1.75;;
11651;SDS011;5882;48.818;9.114;2023-05-16T12:38:06;3.47;;;1.90;;
11651;SDS011;5882;48.818;9.114;2023-05-16T12:40:56;1.77;;;1.67;;
11651;SDS011;5882;48.818;9.114;2023-05-16T12:43:41;1.88;;;1.77;;
11651;SDS011;5882;48.818;9.114;2023-05-16T12:46:26;1.83;;;1.73;;
11651;SDS011;5882;48.818;9.114;2023-05-16T12:49:12;2.10;;;1.90;;
11651;SDS011;5882;48.818;9.114;2023-05-16T12:51:58;1.88;;;1.77;;
11651;SDS011;5882;48.818;9.114;2023-05-16T12:54:48;2.28;;;1.80;;
11651;SDS011;5882;48.818;9.114;2023-05-16T12:57:33;2.03;;;1.90;;
11651;SDS011;5882;48.818;9.114;2023-05-16T13:00:19;2.45;;;1.85;;
11651;SDS011;5882;48.818;9.114;2023-05-16T13:03:05;2.08;;;1.95;;
11651;SDS011;5882;48.818;9.114;2023-05-16T13:05:52;2.03;;;1.83;;
11651;SDS011;5882;48.818;9.114;2023-05-16T13:08:38;2.08;;;1.70;;
11651;SDS011;5882;48.818;9.114;2023-05-16T13:11:23;1.60;;;1.50;;
11651;SDS011;5882;48.818;9.114;2023-05-16T13:14:08;2.45;;;1.55;;
11651;SDS011;5882;48.818;9.114;2023-05-16T13:16:53;2.10;;;1.90;;
11651;SDS011;5882;48.818;9.114;2023-05-16T13:19:38;2.85;;;1.60;;
11651;SDS011;5882;48.818;9.114;2023-05-16T13:22:24;1.60;;;1.50;;
11651;SDS011;5882;48.818;9.114;2023-05-16T13:25:09;1.30;;;1.20;;
11651;SDS011;5882;48.818;9.114;2023-05-16T13:27:55;1.30;;;1.23;;
11651;SDS011;5882;48.818;9.114;2023-05-16T13:30:40;1.17;;;1.17;;
11651;SDS011;5882;48.818;9.114;2023-05-16T13:33:25;1.88;;;1.40;;
11651;SDS011;5882;48.818;9.114;2023-05-16T13:36:10;1.50;;;1.40;;
11651;SDS011;5882;48.818;9.114;2023-05-16T13:38:56;1.27;;;1.17;;
11651;SDS011;5882;48.818;9.114;2023-05-16T13:41:41;1.17;;;1.13;;
11651;SDS011;5882;48.818;9.114;2023-05-16T13:44:27;1.40;;;1.30;;
11651;SDS011;5882;48.818;9.114;2023-05-16T13:47:12;1.30;;;1.20;;
11651;SDS011;5882;48.818;9.114;2023-05-16T13:49:56;1.30;;;1.05;;
11651;SDS011;5882;48.818;9.114;2023-05-16T13:52:42;1.50;;;1.40;;
11651;SDS011;5882;48.818;9.114;2023-05-16T13:55:29;1.60;;;1.50;;
11651;SDS011;5882;48.818;9.114;2023-05-16T13:58:14;1.52;;;1.42;;
11651;SDS011;5882;48.818;9.114;2023-05-16T14:00:59;1.50;;;1.40;;
11651;SDS011;5882;48.818;9.114;2023-05-16T14:03:44;1.63;;;1.25;;
11651;SDS011;5882;48.818;9.114;2023-05-16T14:06:29;1.35;;;1.25;;
11651;SDS011;5882;48.818;9.114;2023-05-16T14:09:15;1.40;;;1.30;;
11651;SDS011;5882;48.818;9.114;2023-05-16T14:12:01;4.43;;;1.42;;
11651;SDS011;5882;48.818;9.114;2023-05-16T14:14:46;1.40;;;1.30;;
11651;SDS011;5882;48.818;9.114;2023-05-16T14:17:31;1.23;;;1.23;;
11651;SDS011;5882;48.818;9.114;2023-05-16T14:20:16;1.90;;;1.75;;
11651;SDS011;5882;48.818;9.114;2023-05-16T14:23:01;1.50;;;1.40;;
11651;SDS011;5882;48.818;9.114;2023-05-16T14:25:46;1.25;;;1.15;;
11651;SDS011;5882;48.818;9.114;2023-05-16T14:28:33;1.23;;;1.20;;
11651;SDS011;5882;48.818;9.114;2023-05-16T14:31:18;1.20;;;1.15;;
11651;SDS011;5882;48.818;9.114;2023-05-16T14:34:03;1.40;;;1.30;;
11651;SDS011;5882;48.818;9.114;2023-05-16T14:36:49;1.35;;;1.15;;
11651;SDS011;5882;48.818;9.114;2023-05-16T14:39:34;1.23;;;1.15;;
11651;SDS011;5882;48.818;9.114;2023-05-16T14:42:19;1.05;;;1.02;;
11651;SDS011;5882;48.818;9.114;2023-05-16T14:45:06;1.23;;;1.23;;
11651;SDS011;5882;48.818;9.114;2023-05-16T14:47:52;2.50;;;1.30;;
11651;SDS011;5882;48.818;9.114;2023-05-16T14:50:37;1.10;;;1.00;;
11651;SDS011;5882;48.818;9.114;2023-05-16T14:53:22;1.15;;;1.05;;
11651;SDS011;5882;48.818;9.114;2023-05-16T14:56:07;1.58;;;1.48;;
11651;SDS011;5882;48.818;9.114;2023-05-16T14:58:52;1.20;;;1.10;;
11651;SDS011;5882;48.818;9.114;2023-05-16T15:01:39;1.33;;;1.00;;
11651;SDS011;5882;48.818;9.114;2023-05-16T15:04:25;1.30;;;1.20;;
11651;SDS011;5882;48.818;9.114;2023-05-16T15:07:10;1.40;;;1.30;;
11651;SDS011;5882;48.818;9.114;2023-05-16T15:09:55;1.27;;;1.20;;
11651;SDS011;5882;48.818;9.114;2023-05-16T15:12:40;1.40;;;1.15;;
11651;SDS011;5882;48.818;9.114;2023-05-16T15:15:26;1.23;;;1.20;;
11651;SDS011;5882;48.818;9.114;2023-05-16T15:18:12;1.58;;;1.17;;
11651;SDS011;5882;48.818;9.114;2023-05-16T15:20:57;1.40;;;1.30;;
11651;SDS011;5882;48.818;9.114;2023-05-16T15:23:42;1.33;;;1.23;;
11651;SDS011;5882;48.818;9.114;2023-05-16T15:26:27;1.23;;;1.23;;
11651;SDS011;5882;48.818;9.114;2023-05-16T15:29:13;1.10;;;1.10;;
11651;SDS011;5882;48.818;9.114;2023-05-16T15:32:02;1.33;;;1.23;;
11651;SDS011;5882;48.818;9.114;2023-05-16T15:34:48;1.77;;;1.33;;
11651;SDS011;5882;48.818;9.114;2023-05-16T15:37:33;1.10;;;1.10;;
11651;SDS011;5882;48.818;9.114;2023-05-16T15:40:18;1.30;;;1.20;;
11651;SDS011;5882;48.818;9.114;2023-05-16T15:43:03;1.83;;;1.20;;
11651;SDS011;5882;48.818;9.114;2023-05-16T15:45:48;1.23;;;1.13;;
11651;SDS011;5882;48.818;9.114;2023-05-16T15:48:33;2.33;;;1.25;;
11651;SDS011;5882;48.818;9.114;2023-05-16T15:51:20;1.30;;;1.20;;
11651;SDS011;5882;48.818;9.114;2023-05-16T15:54:06;1.65;;;1.15;;
11651;SDS011;5882;48.818;9.114;2023-05-16T15:56:55;2.75;;;1.30;;
11651;SDS011;5882;48.818;9.114;2023-05-16T15:59:42;1.42;;;1.33;;
11651;SDS011;5882;48.818;9.114;2023-05-16T16:02:27;1.48;;;1.38;;
11651;SDS011;5882;48.818;9.114;2023-05-16T16:05:13;1.45;;;1.27;;
11651;SDS011;5882;48.818;9.114;2023-05-16T16:07:59;1.10;;;1.10;;
11651;SDS011;5882;48.818;9.114;2023-05-16T16:10:44;1.30;;;1.20;;
11651;SDS011;5882;48.818;9.114;2023-05-16T16:13:29;1.40;;;1.30;;
11651;SDS011;5882;48.818;9.114;2023-05-16T16:16:15;1.10;;;1.00;;
11651;SDS011;5882;48.818;9.114;2023-05-16T16:19:00;1.27;;;1.20;;
11651;SDS011;5882;48.818;9.114;2023-05-16T16:21:45;1.10;;;1.00;;
11651;SDS011;5882;48.818;9.114;2023-05-16T16:24:34;1.10;;;1.10;;
11651;SDS011;5882;48.818;9.114;2023-05-16T16:27:19;1.30;;;1.20;;
11651;SDS011;5882;48.818;9.114;2023-05-16T16:30:05;1.00;;;1.00;;
11651;SDS011;5882;48.818;9.114;2023-05-16T16:32:50;1.67;;;1.55;;
11651;SDS011;5882;48.818;9.114;2023-05-16T16:35:35;3.80;;;1.70;;
11651;SDS011;5882;48.818;9.114;2023-05-16T16:38:20;1.80;;;1.67;;
11651;SDS011;5882;48.818;9.114;2023-05-16T16:41:07;1.58;;;1.48;;
11651;SDS011;5882;48.818;9.114;2023-05-16T16:43:52;1.20;;;1.20;;
11651;SDS011;5882;48.818;9.114;2023-05-16T16:46:37;1.38;;;1.08;;
11651;SDS011;5882;48.818;9.114;2023-05-16T16:49:23;1.63;;;1.52;;